Time;durP1;ratioP1;P1;durP2;ratioP2;P2;SDS_P1;SDS_P2;PMS_P1;PMS_P2;Temp;Humidity;BMP_temperature;BMP_pressure;BME280_temperature;BME280_humidity;BME280_pressure;Samples;Min_cycle;Max_cycle;Signal;HPM_P1;HPM_P2
2022/03/17 00:01:38;;;;;;;26.63;22.53;;;8.20;99.90;;;;;;6131304;23;20160;-86
2022/03/17 00:04:03;;;;;;;27.87;22.67;;;8.10;99.90;;;;;;6131457;23;20275;-87
2022/03/17 00:06:29;;;;;;;29.53;24.70;;;8.10;99.90;;;;;;6132265;23;20655;-87
2022/03/17 00:08:55;;;;;;;29.67;24.97;;;8.20;99.90;;;;;;6131737;23;20159;-87
2022/03/17 00:11:22;;;;;;;30.53;25.80;;;8.20;99.90;;;;;;6131254;23;20869;-87
2022/03/17 00:13:47;;;;;;;29.50;24.83;;;8.20;99.90;;;;;;6128602;23;20453;-87
2022/03/17 00:16:13;;;;;;;28.43;24.50;;;8.20;99.90;;;;;;6129806;23;20408;-88
2022/03/17 00:18:39;;;;;;;27.90;23.17;;;8.20;99.90;;;;;;6133675;23;20821;-88
2022/03/17 00:21:04;;;;;;;27.93;24.87;;;8.20;99.90;;;;;;6128196;23;20198;-87
2022/03/17 00:23:33;;;;;;;29.43;25.30;;;8.20;99.90;;;;;;6128765;23;20168;-87
2022/03/17 00:25:58;;;;;;;28.47;23.53;;;8.30;99.90;;;;;;6130754;23;20198;-87
2022/03/17 00:28:24;;;;;;;30.07;23.97;;;8.40;99.90;;;;;;6134764;23;20423;-87
2022/03/17 00:30:49;;;;;;;28.27;23.63;;;8.40;99.90;;;;;;6131380;23;20201;-87
2022/03/17 00:33:15;;;;;;;27.17;23.47;;;8.30;99.90;;;;;;6127677;23;20571;-87
2022/03/17 00:35:43;;;;;;;28.03;24.50;;;8.30;99.90;;;;;;6128659;23;20198;-87
2022/03/17 00:38:14;;;;;;;28.67;23.70;;;8.30;99.90;;;;;;6130565;23;20247;-87
2022/03/17 00:40:42;;;;;;;28.70;24.63;;;8.20;99.90;;;;;;6130520;23;20397;-88
2022/03/17 00:43:11;;;;;;;28.17;24.10;;;8.30;99.90;;;;;;6130357;23;20806;-88
2022/03/17 00:45:37;;;;;;;27.87;24.30;;;8.40;99.90;;;;;;6129136;23;21328;-88
2022/03/17 00:48:04;;;;;;;29.83;25.07;;;8.40;99.90;;;;;;6131352;23;20812;-87
2022/03/17 00:50:29;;;;;;;30.87;25.87;;;8.50;99.90;;;;;;6130119;23;20465;-88
2022/03/17 00:52:55;;;;;;;30.87;25.63;;;8.40;99.90;;;;;;6128206;23;20391;-88
2022/03/17 00:55:22;;;;;;;29.23;25.30;;;8.40;99.90;;;;;;6127245;23;20933;-88
2022/03/17 00:57:50;;;;;;;29.70;25.30;;;8.40;99.90;;;;;;6129330;23;20399;-88
2022/03/17 01:00:18;;;;;;;27.80;24.20;;;8.40;99.90;;;;;;6131434;23;20403;-88
2022/03/17 01:02:45;;;;;;;27.77;22.03;;;8.40;99.90;;;;;;6132811;23;20923;-88
2022/03/17 01:05:11;;;;;;;29.77;23.60;;;8.30;99.90;;;;;;6132299;23;20395;-89
2022/03/17 01:07:37;;;;;;;29.10;24.70;;;8.10;99.90;;;;;;6130532;23;20606;-89
2022/03/17 01:10:08;;;;;;;27.23;23.03;;;8.00;99.90;;;;;;6130538;23;20459;-89
2022/03/17 01:12:34;;;;;;;31.70;24.17;;;8.00;99.90;;;;;;6133048;23;20410;-89
2022/03/17 01:15:01;;;;;;;28.03;23.67;;;8.00;99.90;;;;;;6130655;23;20391;-88
2022/03/17 01:17:27;;;;;;;27.33;23.27;;;8.00;99.90;;;;;;6129269;23;20881;-89
2022/03/17 01:19:53;;;;;;;26.77;22.70;;;8.00;99.90;;;;;;6131205;23;20949;-89
2022/03/17 01:22:23;;;;;;;28.20;23.67;;;8.00;99.90;;;;;;6133033;23;20388;-88
2022/03/17 01:24:51;;;;;;;27.50;23.00;;;8.00;99.90;;;;;;6134203;23;20493;-88
2022/03/17 01:27:20;;;;;;;23.93;21.10;;;8.00;99.90;;;;;;6138061;23;20471;-89
2022/03/17 01:30:07;;;;;;;26.40;21.87;;;8.00;99.90;;;;;;6133757;23;20686;-89
2022/03/17 01:32:32;;;;;;;27.43;23.20;;;8.00;99.90;;;;;;6136398;23;20395;-87
2022/03/17 01:34:59;;;;;;;27.30;23.33;;;7.90;99.90;;;;;;6135214;23;20442;-88
2022/03/17 01:37:24;;;;;;;29.03;23.70;;;7.80;99.90;;;;;;6133676;23;20193;-87
2022/03/17 01:39:50;;;;;;;29.03;23.80;;;7.60;99.90;;;;;;6134872;23;20403;-87
2022/03/17 01:42:16;;;;;;;28.93;22.93;;;7.60;99.90;;;;;;6133804;23;20162;-87
2022/03/17 01:44:41;;;;;;;30.20;25.17;;;7.50;99.90;;;;;;6133580;23;20167;-88
2022/03/17 01:47:26;;;;;;;30.03;24.60;;;7.40;99.90;;;;;;6131366;23;20205;-88
2022/03/17 01:49:53;;;;;;;29.13;23.13;;;7.40;99.90;;;;;;6133460;23;20190;-87
2022/03/17 01:52:19;;;;;;;30.20;23.90;;;7.40;99.90;;;;;;6128689;23;20473;-87
2022/03/17 01:54:45;;;;;;;31.20;23.87;;;7.40;99.90;;;;;;6127273;23;20493;-88
2022/03/17 01:57:11;;;;;;;26.10;21.67;;;7.40;99.90;;;;;;6129684;23;20661;-88
2022/03/17 01:59:39;;;;;;;27.93;22.90;;;7.50;99.90;;;;;;6128412;23;20162;-87
2022/03/17 02:02:09;;;;;;;27.03;23.00;;;7.50;99.90;;;;;;6129420;23;20905;-87
2022/03/17 02:04:35;;;;;;;27.60;22.10;;;7.40;99.90;;;;;;6130942;23;21192;-87
2022/03/17 02:07:03;;;;;;;28.13;23.17;;;7.40;99.90;;;;;;6130748;23;20742;-87
2022/03/17 02:09:29;;;;;;;28.60;22.80;;;7.40;99.90;;;;;;6131100;23;20708;-87
2022/03/17 02:14:54;;;;;;;26.50;22.90;;;7.50;99.90;;;;;;6153808;23;20243;-88
2022/03/17 02:17:21;;;;;;;31.87;23.13;;;7.50;99.90;;;;;;6129587;23;20732;-87
2022/03/17 02:19:47;;;;;;;28.27;22.50;;;7.50;99.90;;;;;;6129889;23;20745;-88
2022/03/17 02:22:15;;;;;;;30.50;24.00;;;7.50;99.90;;;;;;6127560;23;20774;-88
2022/03/17 02:27:42;;;;;;;30.83;23.60;;;7.30;99.90;;;;;;6158169;23;20944;-88
2022/03/17 02:30:12;;;;;;;30.17;24.70;;;7.40;99.90;;;;;;6132260;23;20504;-88
2022/03/17 02:32:39;;;;;;;30.00;24.80;;;7.50;99.90;;;;;;6130967;23;20576;-87
2022/03/17 02:35:12;;;;;;;27.30;22.97;;;7.50;99.90;;;;;;6130144;23;20405;-88
2022/03/17 02:37:38;;;;;;;26.30;22.07;;;7.50;99.90;;;;;;6128612;23;20904;-88
2022/03/17 02:40:07;;;;;;;28.07;23.30;;;7.50;99.90;;;;;;6129267;23;20404;-88
2022/03/17 02:42:33;;;;;;;27.47;22.60;;;7.50;99.90;;;;;;6129366;23;20472;-88
2022/03/17 02:45:03;;;;;;;26.43;22.53;;;7.60;99.90;;;;;;6126719;23;20953;-88
2022/03/17 02:47:37;;;;;;;28.83;22.83;;;7.60;99.90;;;;;;6156113;23;20172;-87
2022/03/17 02:50:04;;;;;;;27.70;21.60;;;7.50;99.90;;;;;;6129231;23;20480;-88
2022/03/17 02:52:38;;;;;;;29.03;23.90;;;7.50;99.90;;;;;;6128936;23;20379;-88
2022/03/17 02:55:05;;;;;;;28.37;23.20;;;7.40;99.90;;;;;;6128779;23;20394;-88
2022/03/17 02:57:37;;;;;;;30.30;23.00;;;7.40;99.90;;;;;;6129203;23;20950;-88
2022/03/17 03:00:09;;;;;;;30.60;24.50;;;7.40;99.90;;;;;;6133128;23;20393;-88
2022/03/17 03:02:35;;;;;;;30.67;24.80;;;7.50;99.90;;;;;;6135908;23;20390;-88
2022/03/17 03:05:02;;;;;;;32.40;25.80;;;7.50;99.90;;;;;;6134225;23;20389;-88
2022/03/17 03:07:28;;;;;;;29.10;24.23;;;7.50;99.90;;;;;;6134625;23;20413;-88
2022/03/17 03:09:55;;;;;;;29.13;24.50;;;7.50;99.90;;;;;;6130416;23;20969;-88
2022/03/17 03:12:20;;;;;;;31.00;24.70;;;7.50;99.90;;;;;;6129933;23;20662;-87
2022/03/17 03:14:58;;;;;;;32.20;26.37;;;7.50;99.90;;;;;;6130256;23;20870;-87
2022/03/17 03:17:25;;;;;;;33.00;25.30;;;7.60;99.90;;;;;;6132099;23;20227;-88
2022/03/17 03:19:52;;;;;;;30.17;25.50;;;7.60;99.90;;;;;;6132315;23;20436;-88
2022/03/17 03:22:18;;;;;;;37.83;26.50;;;7.60;99.90;;;;;;6135225;23;20478;-88
2022/03/17 03:24:45;;;;;;;29.27;23.77;;;7.70;99.90;;;;;;6135702;23;20564;-89
2022/03/17 03:27:10;;;;;;;29.43;22.70;;;7.70;99.90;;;;;;6137586;23;20193;-88
2022/03/17 03:29:36;;;;;;;29.47;23.83;;;7.70;99.90;;;;;;6132546;23;21382;-88
2022/03/17 03:32:04;;;;;;;29.33;23.37;;;7.70;99.90;;;;;;6140759;23;20162;-87
2022/03/17 03:34:30;;;;;;;28.10;23.17;;;7.70;99.90;;;;;;6136678;23;20163;-88
2022/03/17 03:39:41;;;;;;;30.90;24.23;;;7.60;99.90;;;;;;6168074;23;20374;-89
2022/03/17 03:42:09;;;;;;;31.40;24.83;;;7.70;99.90;;;;;;6146330;23;20742;-89
2022/03/17 03:44:37;;;;;;;29.37;24.80;;;7.70;99.90;;;;;;6145574;23;20207;-89
2022/03/17 03:47:04;;;;;;;30.97;25.00;;;7.70;99.90;;;;;;6138588;23;20405;-88
2022/03/17 03:49:30;;;;;;;31.50;24.93;;;7.80;99.90;;;;;;6135074;23;20944;-88
2022/03/17 03:51:55;;;;;;;35.00;27.33;;;7.80;99.90;;;;;;6133078;23;20406;-87
2022/03/17 03:54:21;;;;;;;33.37;25.03;;;7.80;99.90;;;;;;6129729;23;20170;-89
2022/03/17 03:56:52;;;;;;;33.50;25.90;;;7.80;99.90;;;;;;6130676;23;20533;-88
2022/03/17 03:59:23;;;;;;;35.33;26.57;;;7.70;99.90;;;;;;6129447;23;20552;-89
2022/03/17 04:01:54;;;;;;;37.80;28.20;;;7.60;99.90;;;;;;6130675;23;20375;-89
2022/03/17 04:04:25;;;;;;;34.63;26.23;;;7.80;99.90;;;;;;6131598;23;20391;-89
2022/03/17 04:06:52;;;;;;;33.90;26.70;;;7.80;99.90;;;;;;6131541;23;20694;-89
2022/03/17 04:09:20;;;;;;;33.43;27.37;;;7.80;99.90;;;;;;6136398;23;20434;-89
2022/03/17 04:11:46;;;;;;;34.10;27.77;;;7.80;99.90;;;;;;6135932;23;20413;-88
2022/03/17 04:14:15;;;;;;;35.20;26.83;;;7.90;99.90;;;;;;6135419;23;20449;-89
2022/03/17 04:16:40;;;;;;;35.33;27.50;;;7.90;99.90;;;;;;6139844;23;20410;-88
2022/03/17 04:19:07;;;;;;;31.50;25.77;;;8.00;99.90;;;;;;6134936;23;20395;-89
2022/03/17 04:21:32;;;;;;;33.00;26.50;;;8.00;99.90;;;;;;6133790;23;20159;-89
2022/03/17 04:23:59;;;;;;;34.00;25.80;;;8.00;99.90;;;;;;6134875;23;20402;-87
2022/03/17 04:26:28;;;;;;;33.90;26.93;;;8.00;99.90;;;;;;6135775;23;20700;-89
2022/03/17 04:28:54;;;;;;;33.10;26.23;;;7.90;99.90;;;;;;6141200;23;20391;-88
2022/03/17 04:31:23;;;;;;;35.43;27.73;;;7.80;99.90;;;;;;6134810;23;20490;-89
2022/03/17 04:33:50;;;;;;;31.70;25.30;;;7.80;99.90;;;;;;6130727;23;20395;-89
2022/03/17 04:36:16;;;;;;;33.87;26.37;;;7.80;99.90;;;;;;6126885;23;20497;-89
2022/03/17 04:38:42;;;;;;;29.20;24.80;;;7.80;99.90;;;;;;6133113;23;20397;-88
2022/03/17 04:41:09;;;;;;;32.07;24.60;;;7.80;99.90;;;;;;6130447;23;20403;-89
2022/03/17 04:43:48;;;;;;;34.87;27.30;;;7.80;99.90;;;;;;6132957;23;20892;-89
2022/03/17 04:46:14;;;;;;;35.80;26.23;;;7.70;99.90;;;;;;6124130;23;20418;-89
2022/03/17 04:48:53;;;;;;;35.40;27.00;;;7.70;99.90;;;;;;6157122;23;21153;-89
2022/03/17 04:51:19;;;;;;;33.57;26.00;;;7.60;99.90;;;;;;6130727;23;20404;-91
2022/03/17 04:53:45;;;;;;;33.17;26.40;;;7.60;99.90;;;;;;6131092;23;20411;-88
2022/03/17 04:56:14;;;;;;;32.37;24.97;;;7.60;99.90;;;;;;6130315;23;20787;-89
2022/03/17 04:58:43;;;;;;;33.53;25.80;;;7.60;99.90;;;;;;6131301;23;20402;-88
2022/03/17 05:01:11;;;;;;;35.40;26.50;;;7.70;99.90;;;;;;6134679;23;20399;-89
2022/03/17 05:03:37;;;;;;;30.97;24.97;;;7.70;99.90;;;;;;6130282;23;20816;-89
2022/03/17 05:06:04;;;;;;;32.10;25.13;;;7.70;99.90;;;;;;6129888;23;20413;-88
2022/03/17 05:08:35;;;;;;;30.40;25.20;;;7.70;99.90;;;;;;6131658;23;20438;-88
2022/03/17 05:11:04;;;;;;;32.00;25.13;;;7.70;99.90;;;;;;6130699;23;20497;-87
2022/03/17 05:13:30;;;;;;;33.20;25.60;;;7.70;99.90;;;;;;6128115;23;20394;-88
2022/03/17 05:15:56;;;;;;;29.10;23.50;;;7.60;99.90;;;;;;6128553;23;20420;-87
2022/03/17 05:18:25;;;;;;;30.93;24.90;;;7.50;99.90;;;;;;6131696;23;20386;-88
2022/03/17 05:20:51;;;;;;;32.13;26.00;;;7.40;99.90;;;;;;6129433;23;20160;-87
2022/03/17 05:23:18;;;;;;;32.50;25.37;;;7.30;99.90;;;;;;6133275;23;20757;-86
2022/03/17 05:25:45;;;;;;;35.23;26.30;;;7.30;99.90;;;;;;6136401;23;20154;-86
2022/03/17 05:28:11;;;;;;;33.23;26.13;;;7.40;99.90;;;;;;6136298;23;20394;-87
2022/03/17 05:30:38;;;;;;;31.37;25.80;;;7.30;99.90;;;;;;6137573;23;20446;-87
2022/03/17 05:33:05;;;;;;;32.90;25.57;;;7.40;99.90;;;;;;6132770;23;20390;-87
2022/03/17 05:35:33;;;;;;;32.20;25.70;;;7.40;99.90;;;;;;6133986;23;20397;-87
2022/03/17 05:38:03;;;;;;;36.07;26.87;;;7.50;99.90;;;;;;6133710;23;20396;-85
2022/03/17 05:40:29;;;;;;;36.10;27.50;;;7.40;99.90;;;;;;6133798;23;20422;-87
2022/03/17 05:42:57;;;;;;;38.00;29.47;;;7.40;99.90;;;;;;6133116;23;20389;-87
2022/03/17 05:45:27;;;;;;;36.07;27.60;;;7.40;99.90;;;;;;6132116;23;20396;-87
2022/03/17 05:47:54;;;;;;;37.87;27.20;;;7.40;99.90;;;;;;6134387;23;20422;-87
2022/03/17 05:50:25;;;;;;;36.90;29.30;;;7.40;99.90;;;;;;6134490;23;20442;-87
2022/03/17 05:52:51;;;;;;;38.33;27.50;;;7.40;99.90;;;;;;6129231;23;20917;-87
2022/03/17 05:55:27;;;;;;;36.03;27.20;;;7.50;99.90;;;;;;5084014;27;20773;-86
2022/03/17 05:57:54;;;;;;;34.87;26.70;;;7.60;99.90;;;;;;4993732;27;20679;-86
2022/03/17 06:00:23;;;;;;;36.53;28.50;;;7.50;99.90;;;;;;5078098;27;20440;-87
2022/03/17 06:02:50;;;;;;;36.77;27.30;;;7.50;99.90;;;;;;4978218;28;20441;-86
2022/03/17 06:05:16;;;;;;;36.47;27.03;;;7.50;99.90;;;;;;4975132;28;20453;-86
2022/03/17 06:07:46;;;;;;;30.87;25.80;;;7.60;99.90;;;;;;4992567;27;20453;-85
2022/03/17 06:10:15;;;;;;;36.70;28.77;;;7.70;99.90;;;;;;4984776;28;20247;-88
2022/03/17 06:12:43;;;;;;;32.70;26.53;;;7.60;99.90;;;;;;4983029;28;20500;-88
2022/03/17 06:15:09;;;;;;;35.33;26.93;;;7.60;99.90;;;;;;4991214;28;21262;-88
2022/03/17 06:17:36;;;;;;;34.33;27.43;;;7.60;99.90;;;;;;4983646;28;22198;-90
2022/03/17 06:20:02;;;;;;;35.50;26.30;;;7.60;99.90;;;;;;5071040;27;20457;-89
2022/03/17 06:22:31;;;;;;;41.03;27.67;;;7.50;99.90;;;;;;4986035;28;20579;-88
2022/03/17 06:24:57;;;;;;;36.27;27.80;;;7.50;99.90;;;;;;4985910;28;20476;-87
2022/03/17 06:27:29;;;;;;;37.30;28.37;;;7.50;99.90;;;;;;4982830;28;20438;-86
2022/03/17 06:29:55;;;;;;;32.13;25.90;;;7.60;99.90;;;;;;4976209;28;20183;-86
2022/03/17 06:32:26;;;;;;;39.00;29.00;;;7.70;99.90;;;;;;4977602;28;20527;-89
2022/03/17 06:34:57;;;;;;;37.80;28.70;;;7.70;99.90;;;;;;5081527;27;20218;-89
2022/03/17 06:37:22;;;;;;;35.40;27.73;;;7.70;99.90;;;;;;4970670;28;20756;-89
2022/03/17 06:39:48;;;;;;;37.10;27.33;;;7.70;99.90;;;;;;4976959;28;20789;-88
2022/03/17 06:42:16;;;;;;;34.13;24.80;;;7.90;99.90;;;;;;4990585;27;20200;-86
2022/03/17 06:44:46;;;;;;;33.07;26.80;;;8.00;99.90;;;;;;4987984;27;20196;-87
2022/03/17 06:47:30;;;;;;;32.17;25.00;;;8.10;99.90;;;;;;4976265;28;20482;-92
2022/03/17 06:50:00;;;;;;;31.40;24.07;;;8.10;99.90;;;;;;5001295;27;20259;-83
2022/03/17 06:52:26;;;;;;;35.43;27.20;;;8.30;99.90;;;;;;4989966;28;20435;-91
2022/03/17 06:54:54;;;;;;;31.80;26.03;;;8.40;99.90;;;;;;4994334;28;20482;-89
2022/03/17 06:57:24;;;;;;;34.13;26.27;;;8.50;99.90;;;;;;4985316;28;20243;-90
2022/03/17 06:59:50;;;;;;;34.10;27.17;;;8.60;99.90;;;;;;5082849;27;20447;-88
2022/03/17 07:02:18;;;;;;;39.37;28.17;;;8.30;99.90;;;;;;5076517;27;21010;-88
2022/03/17 07:04:45;;;;;;;37.17;29.57;;;8.10;99.90;;;;;;5083555;27;20541;-89
2022/03/17 07:07:11;;;;;;;39.27;29.30;;;8.20;99.90;;;;;;4960558;28;20450;-89
2022/03/17 07:09:46;;;;;;;37.43;29.17;;;8.40;99.90;;;;;;5074916;27;20968;-88
2022/03/17 07:12:12;;;;;;;38.53;29.70;;;8.60;99.90;;;;;;4975764;28;20475;-89
2022/03/17 07:14:38;;;;;;;36.93;29.80;;;8.50;99.90;;;;;;4964968;28;20495;-88
2022/03/17 07:17:07;;;;;;;37.47;29.03;;;8.50;99.90;;;;;;4976603;28;20197;-88
2022/03/17 07:19:34;;;;;;;40.43;29.00;;;8.50;99.90;;;;;;4969217;28;21094;-87
2022/03/17 07:22:04;;;;;;;40.63;31.13;;;8.50;99.90;;;;;;4972814;28;20571;-89
2022/03/17 07:24:30;;;;;;;41.93;29.77;;;8.40;99.90;;;;;;4972258;28;21018;-88
2022/03/17 07:27:05;;;;;;;36.20;28.63;;;8.50;99.90;;;;;;5073860;27;20436;-88
2022/03/17 07:29:31;;;;;;;37.50;30.00;;;8.70;99.90;;;;;;4979971;28;20482;-88
2022/03/17 07:31:57;;;;;;;37.87;29.17;;;8.70;99.90;;;;;;4968869;28;20823;-88
2022/03/17 07:34:31;;;;;;;43.47;31.77;;;8.70;99.90;;;;;;4969570;28;20748;-89
2022/03/17 07:36:57;;;;;;;37.43;29.63;;;8.80;99.90;;;;;;4973633;28;20550;-89
2022/03/17 07:39:26;;;;;;;32.67;27.40;;;8.90;99.90;;;;;;4972179;28;20518;-87
2022/03/17 07:41:55;;;;;;;43.17;30.07;;;9.20;99.90;;;;;;4984561;27;20315;-89
2022/03/17 07:44:20;;;;;;;37.50;29.70;;;9.30;99.90;;;;;;5069895;27;20568;-89
2022/03/17 07:46:48;;;;;;;32.63;26.60;;;9.20;99.90;;;;;;4990897;28;21942;-88
2022/03/17 07:49:14;;;;;;;40.70;30.20;;;9.40;99.90;;;;;;4969859;28;20189;-88
2022/03/17 07:51:40;;;;;;;38.63;29.90;;;9.50;99.90;;;;;;4977473;28;21516;-88
2022/03/17 07:54:07;;;;;;;51.27;30.60;;;9.40;99.90;;;;;;4961848;28;20481;-88
2022/03/17 07:56:33;;;;;;;40.40;28.27;;;9.50;99.90;;;;;;5057848;27;21014;-90
2022/03/17 07:58:59;;;;;;;37.03;29.10;;;9.50;99.90;;;;;;4982990;27;20448;-89
2022/03/17 08:01:31;;;;;;;39.97;30.90;;;9.60;99.90;;;;;;4968451;28;20567;-89
2022/03/17 08:04:11;;;;;;;38.00;29.87;;;9.60;99.90;;;;;;4973181;28;20450;-88
2022/03/17 08:06:37;;;;;;;34.67;28.93;;;9.60;99.90;;;;;;4978423;28;20451;-89
2022/03/17 08:09:03;;;;;;;36.80;28.73;;;9.60;99.90;;;;;;4978906;28;20976;-87
2022/03/17 08:11:32;;;;;;;39.00;30.00;;;9.80;99.90;;;;;;4970267;28;20227;-89
2022/03/17 08:13:58;;;;;;;39.27;30.20;;;9.90;99.90;;;;;;4986442;28;20524;-88
2022/03/17 08:16:23;;;;;;;39.27;29.70;;;9.90;99.90;;;;;;4973311;28;20452;-87
2022/03/17 08:18:49;;;;;;;36.13;28.03;;;9.80;99.90;;;;;;4968110;28;20193;-87
2022/03/17 08:21:15;;;;;;;37.17;28.90;;;9.70;99.90;;;;;;4964368;28;20316;-88
2022/03/17 08:23:41;;;;;;;37.27;28.10;;;9.70;99.90;;;;;;4963193;28;20767;-88
2022/03/17 08:26:24;;;;;;;35.57;27.97;;;9.80;99.90;;;;;;4981599;27;20919;-87
2022/03/17 08:28:56;;;;;;;38.30;28.80;;;9.90;99.90;;;;;;4968503;28;20189;-87
2022/03/17 08:31:24;;;;;;;34.13;26.93;;;9.90;99.90;;;;;;4974034;28;20515;-86
2022/03/17 08:33:52;;;;;;;34.10;27.83;;;10.00;99.90;;;;;;4973161;28;20492;-87
2022/03/17 08:36:21;;;;;;;34.03;26.60;;;9.80;99.90;;;;;;4965317;28;20897;-87
2022/03/17 08:38:46;;;;;;;37.13;29.03;;;9.90;99.90;;;;;;4960800;28;21028;-86
2022/03/17 08:41:15;;;;;;;36.27;28.07;;;9.90;99.90;;;;;;4965103;28;20233;-87
2022/03/17 08:43:41;;;;;;;33.37;26.00;;;10.00;99.90;;;;;;4984284;28;20192;-87
2022/03/17 08:51:37;;;;;;;34.00;27.40;;;10.10;99.90;;;;;;4964326;28;20528;-88
2022/03/17 08:54:03;;;;;;;35.33;27.37;;;10.10;99.90;;;;;;4962476;28;20479;-88
2022/03/17 08:56:33;;;;;;;37.10;29.23;;;10.10;99.90;;;;;;4974957;28;21242;-88
2022/03/17 08:58:59;;;;;;;38.07;30.00;;;10.10;99.90;;;;;;4978522;28;20694;-87
2022/03/17 09:01:25;;;;;;;34.00;28.30;;;10.00;99.90;;;;;;4963609;28;21046;-87
2022/03/17 09:03:56;;;;;;;38.77;29.93;;;9.80;99.90;;;;;;4964181;28;20444;-88
2022/03/17 09:06:38;;;;;;;37.60;28.83;;;9.80;99.90;;;;;;4975686;27;20309;-87
2022/03/17 09:09:04;;;;;;;35.97;27.33;;;9.90;99.90;;;;;;4965214;28;20562;-88
2022/03/17 09:11:35;;;;;;;35.67;28.70;;;10.00;99.90;;;;;;4967631;28;20973;-87
2022/03/17 09:14:25;;;;;;;39.43;28.17;;;10.20;99.90;;;;;;4967722;28;20224;-88
2022/03/17 09:16:51;;;;;;;41.07;29.73;;;10.20;99.90;;;;;;4982817;27;20478;-89
2022/03/17 09:19:19;;;;;;;35.30;28.00;;;10.20;99.90;;;;;;4968097;28;20519;-87
2022/03/17 09:21:46;;;;;;;35.00;27.80;;;10.20;99.90;;;;;;4965813;28;20443;-87
2022/03/17 09:24:11;;;;;;;35.63;28.30;;;10.30;99.90;;;;;;4969695;28;20448;-88
2022/03/17 09:26:37;;;;;;;34.30;27.63;;;10.40;99.90;;;;;;4971942;28;20535;-89
2022/03/17 09:29:05;;;;;;;34.57;27.87;;;10.50;99.90;;;;;;4967184;28;20200;-88
2022/03/17 09:31:31;;;;;;;35.57;28.30;;;10.40;99.90;;;;;;4969035;28;22040;-90
2022/03/17 09:33:57;;;;;;;37.30;29.17;;;10.50;99.90;;;;;;5070533;27;20750;-88
2022/03/17 09:36:22;;;;;;;37.20;28.73;;;10.60;99.90;;;;;;4980262;28;20512;-88
2022/03/17 09:41:35;;;;;;;34.90;27.90;;;10.60;99.90;;;;;;4958098;28;20199;-88
2022/03/17 09:44:02;;;;;;;36.47;28.13;;;10.90;99.90;;;;;;4971495;28;20444;-88
2022/03/17 09:46:29;;;;;;;32.60;27.30;;;10.90;99.90;;;;;;4971197;28;20451;-89
2022/03/17 09:48:55;;;;;;;36.93;28.20;;;11.10;99.90;;;;;;5070498;27;20451;-88
2022/03/17 09:51:26;;;;;;;36.37;29.80;;;11.30;99.90;;;;;;4967989;28;21041;-88
2022/03/17 09:54:00;;;;;;;35.77;28.63;;;11.30;99.90;;;;;;5056726;27;20494;-89
2022/03/17 09:56:35;;;;;;;37.87;29.73;;;11.40;99.90;;;;;;4966203;28;20452;-90
2022/03/17 09:59:30;;;;;;;48.83;31.60;;;11.40;99.90;;;;;;4963709;28;20451;-90
2022/03/17 10:01:57;;;;;;;69.20;33.77;;;11.30;99.90;;;;;;4971255;28;20436;-89
2022/03/17 10:04:37;;;;;;;49.63;32.80;;;11.30;99.90;;;;;;5064009;27;20443;-89
2022/03/17 10:07:12;;;;;;;45.50;31.50;;;11.40;99.90;;;;;;4962095;28;20456;-89
2022/03/17 10:10:09;;;;;;;41.13;31.47;;;11.50;99.90;;;;;;4978630;28;20440;-90
2022/03/17 10:12:37;;;;;;;38.57;31.47;;;11.60;99.90;;;;;;4964884;28;21037;-90
2022/03/17 10:15:17;;;;;;;34.00;29.40;;;11.80;99.90;;;;;;4965791;28;20578;-89
2022/03/17 10:17:43;;;;;;;37.23;29.93;;;11.60;99.90;;;;;;4981189;28;20452;-88
2022/03/17 10:20:15;;;;;;;38.63;30.20;;;11.60;99.90;;;;;;4975214;28;20440;-90
2022/03/17 10:22:55;;;;;;;42.40;31.50;;;11.70;99.90;;;;;;4976414;28;20718;-89
2022/03/17 10:25:54;;;;;;;;;;;;;;;;;;;;;
2022/03/17 10:28:20;;;;;;;35.07;27.80;;;11.80;99.90;;;;;;4968624;28;20451;-89
2022/03/17 10:30:48;;;;;;;36.60;29.27;;;11.80;99.90;;;;;;4972378;28;21100;-88
2022/03/17 10:33:20;;;;;;;35.23;29.57;;;11.70;99.90;;;;;;4981129;28;20443;-87
2022/03/17 10:35:48;;;;;;;40.43;31.50;;;11.60;99.90;;;;;;4969800;28;20441;-91
2022/03/17 10:38:17;;;;;;;35.17;29.50;;;11.60;99.90;;;;;;4971182;28;20509;-91
2022/03/17 10:41:15;;;;;;;37.53;30.10;;;11.50;99.90;;;;;;4981454;28;20764;-90
2022/03/17 10:43:45;;;;;;;36.43;29.77;;;11.50;99.90;;;;;;4972606;28;20447;-91
2022/03/17 10:46:16;;;;;;;36.50;29.73;;;11.40;99.90;;;;;;5074047;27;20456;-90
2022/03/17 10:48:55;;;;;;;35.07;28.83;;;11.40;99.90;;;;;;4988513;28;20555;-91
2022/03/17 10:51:54;;;;;;;33.40;28.93;;;11.60;99.90;;;;;;4973299;28;22045;-91
2022/03/17 10:54:20;;;;;;;37.57;29.30;;;11.50;99.90;;;;;;4976552;28;20475;-91
2022/03/17 10:57:09;;;;;;;41.70;30.07;;;11.70;99.90;;;;;;5080481;27;20486;-94
2022/03/17 10:59:54;;;;;;;40.70;31.40;;;11.80;99.90;;;;;;4986014;28;20193;-91
2022/03/17 11:02:25;;;;;;;41.27;32.83;;;11.60;99.90;;;;;;4984572;28;20440;-91
2022/03/17 11:04:51;;;;;;;36.70;30.17;;;11.30;99.90;;;;;;4995272;27;20455;-94
2022/03/17 11:07:21;;;;;;;39.67;31.50;;;11.10;99.90;;;;;;5002074;28;20473;-92
2022/03/17 11:09:50;;;;;;;37.13;30.10;;;11.20;99.90;;;;;;4986917;28;20452;-90
2022/03/17 11:12:20;;;;;;;36.63;30.33;;;11.30;99.90;;;;;;4993268;28;20452;-90
2022/03/17 11:14:50;;;;;;;37.03;29.50;;;11.30;99.90;;;;;;4973176;28;20610;-89
2022/03/17 11:17:28;;;;;;;38.00;30.10;;;11.30;99.90;;;;;;5078449;27;20444;-88
2022/03/17 11:20:01;;;;;;;38.10;30.03;;;11.10;99.90;;;;;;4990521;28;20452;-92
2022/03/17 11:22:33;;;;;;;44.00;29.73;;;11.10;99.90;;;;;;5081447;27;20447;-91
2022/03/17 11:25:29;;;;;;;35.30;27.80;;;11.10;99.90;;;;;;4986513;28;20459;-91
2022/03/17 11:28:01;;;;;;;39.00;29.40;;;11.10;99.90;;;;;;4992025;28;20525;-94
2022/03/17 11:30:49;;;;;;;37.93;29.27;;;11.30;99.90;;;;;;5002969;28;20535;-96
2022/03/17 11:33:43;;;;;;;37.57;29.60;;;11.40;99.90;;;;;;5000026;28;21029;-90
2022/03/17 11:36:08;;;;;;;39.67;29.83;;;11.70;99.90;;;;;;4968757;28;20910;-90
2022/03/17 11:39:02;;;;;;;37.10;29.60;;;11.90;99.90;;;;;;4974516;28;20447;-91
2022/03/17 11:41:30;;;;;;;41.37;32.03;;;12.00;99.90;;;;;;4972424;28;20232;-90
2022/03/17 11:43:56;;;;;;;39.10;30.20;;;12.20;99.90;;;;;;4976946;28;20450;-89
2022/03/17 11:46:45;;;;;;;35.63;29.90;;;12.10;99.90;;;;;;4991443;28;20527;-89
2022/03/17 11:49:21;;;;;;;36.70;29.87;;;12.30;99.90;;;;;;4972167;28;20918;-90
2022/03/17 11:51:53;;;;;;;37.90;30.53;;;12.10;99.90;;;;;;4966898;28;20453;-91
2022/03/17 11:54:22;;;;;;;39.80;31.13;;;12.00;99.90;;;;;;4981341;28;20491;-91
2022/03/17 11:56:53;;;;;;;39.87;32.80;;;11.90;99.90;;;;;;4969739;28;20433;-92
2022/03/17 11:59:26;;;;;;;36.33;30.67;;;11.70;99.90;;;;;;4977267;28;20448;-90
2022/03/17 12:01:55;;;;;;;35.80;29.70;;;11.80;99.90;;;;;;4969717;28;22124;-90
2022/03/17 12:04:46;;;;;;;38.97;30.63;;;12.00;99.90;;;;;;5064235;27;21028;-90
2022/03/17 12:07:13;;;;;;;38.40;32.07;;;12.00;99.90;;;;;;4978135;28;20444;-88
2022/03/17 12:09:40;;;;;;;34.87;28.70;;;12.20;99.90;;;;;;4967424;28;20444;-88
2022/03/17 12:12:22;;;;;;;37.20;28.80;;;12.00;99.90;;;;;;4968274;28;20446;-89
2022/03/17 12:14:54;;;;;;;39.20;31.93;;;12.00;99.90;;;;;;4979107;28;21066;-91
2022/03/17 12:17:24;;;;;;;39.73;29.27;;;12.30;99.90;;;;;;4984192;28;20986;-90
2022/03/17 12:20:14;;;;;;;37.40;30.23;;;12.40;99.90;;;;;;4960672;28;21049;-91
2022/03/17 12:22:43;;;;;;;36.17;30.77;;;12.20;99.90;;;;;;4983165;27;20557;-89
2022/03/17 12:25:22;;;;;;;35.43;29.30;;;12.10;99.90;;;;;;4979091;28;20889;-88
2022/03/17 12:27:56;;;;;;;36.00;29.33;;;12.20;99.90;;;;;;4964937;28;20938;-89
2022/03/17 12:30:28;;;;;;;36.07;29.23;;;12.20;99.90;;;;;;5059462;27;20444;-90
2022/03/17 12:32:55;;;;;;;37.90;29.20;;;12.20;99.90;;;;;;4968296;28;20455;-91
2022/03/17 12:35:25;;;;;;;36.80;30.10;;;12.20;99.90;;;;;;5067543;27;20480;-91
2022/03/17 12:37:59;;;;;;;39.00;30.30;;;12.20;99.90;;;;;;4970699;28;20444;-90
2022/03/17 12:40:25;;;;;;;38.57;29.60;;;12.20;99.90;;;;;;4967696;28;21040;-91
2022/03/17 12:42:53;;;;;;;40.17;31.60;;;12.30;99.90;;;;;;4980273;27;20443;-90
2022/03/17 12:45:22;;;;;;;40.93;31.90;;;12.20;99.90;;;;;;5084632;27;20485;-93
2022/03/17 12:47:58;;;;;;;39.47;30.70;;;12.00;99.90;;;;;;5086616;27;20436;-94
2022/03/17 12:50:39;;;;;;;41.20;32.50;;;12.10;99.90;;;;;;4995129;28;24514;-96
2022/03/17 12:53:09;;;;;;;42.57;32.30;;;12.10;99.90;;;;;;4982332;28;20436;-94
2022/03/17 12:55:38;;;;;;;39.03;33.60;;;12.20;99.90;;;;;;4981938;28;20499;-95
2022/03/17 12:58:06;;;;;;;38.37;30.13;;;12.00;99.90;;;;;;4978144;28;20450;-90
2022/03/17 13:00:32;;;;;;;39.97;31.30;;;11.60;99.90;;;;;;4963343;28;20563;-90
2022/03/17 13:02:59;;;;;;;44.37;33.47;;;11.50;99.90;;;;;;4968313;28;20443;-92
2022/03/17 13:08:12;;;;;;;43.00;32.97;;;11.30;99.90;;;;;;4975973;28;20459;-90